Time;durP1;ratioP1;P1;durP2;ratioP2;P2;SDS_P1;SDS_P2;PMS_P1;PMS_P2;Temp;Humidity;BMP_temperature;BMP_pressure;BME280_temperature;BME280_humidity;BME280_pressure;Samples;Min_cycle;Max_cycle;Signal;HPM_P1;HPM_P2
2023/05/05 00:01:36;;;;;;;17.93;7.77;;;;;;;;;;5129814;28;20020;-64
2023/05/05 00:04:03;;;;;;;8.40;5.70;;;;;;;;;;5129801;28;20078;-63
2023/05/05 00:06:30;;;;;;;11.23;5.03;;;;;;;;;;5129674;28;20020;-64
2023/05/05 00:08:57;;;;;;;7.73;4.37;;;;;;;;;;5124850;28;20027;-64
2023/05/05 00:11:24;;;;;;;9.77;5.43;;;;;;;;;;5124402;28;20039;-63
2023/05/05 00:13:51;;;;;;;7.53;5.30;;;;;;;;;;5124523;28;20030;-65
2023/05/05 00:16:18;;;;;;;8.27;5.50;;;;;;;;;;5124359;28;20030;-65
2023/05/05 00:18:46;;;;;;;9.97;5.73;;;;;;;;;;5128096;28;20020;-64
2023/05/05 00:21:13;;;;;;;31.07;5.80;;;;;;;;;;5128597;28;20059;-63
2023/05/05 00:23:39;;;;;;;10.97;6.60;;;;;;;;;;5115178;28;20084;-64
2023/05/05 00:26:06;;;;;;;15.50;6.67;;;;;;;;;;5115236;28;20027;-64
2023/05/05 00:28:33;;;;;;;8.83;5.70;;;;;;;;;;5115758;28;20024;-64
2023/05/05 00:31:00;;;;;;;7.50;5.50;;;;;;;;;;5111971;28;20043;-64
2023/05/05 00:33:27;;;;;;;11.57;8.20;;;;;;;;;;5110458;28;20106;-63
2023/05/05 00:35:53;;;;;;;8.90;6.77;;;;;;;;;;5110633;28;20033;-64
2023/05/05 00:38:20;;;;;;;24.67;6.77;;;;;;;;;;5110364;28;20024;-63
2023/05/05 00:40:47;;;;;;;8.13;4.87;;;;;;;;;;5113048;28;20110;-64
2023/05/05 00:43:14;;;;;;;7.37;5.63;;;;;;;;;;5115343;28;20464;-64
2023/05/05 00:45:43;;;;;;;8.80;4.83;;;;;;;;;;5115058;28;20034;-64
2023/05/05 00:48:09;;;;;;;19.57;6.20;;;;;;;;;;5115506;28;20024;-64
2023/05/05 00:50:37;;;;;;;8.07;5.30;;;;;;;;;;5115135;28;20038;-64
2023/05/05 00:53:05;;;;;;;8.40;5.43;;;;;;;;;;5112246;28;20031;-63
2023/05/05 00:55:32;;;;;;;7.40;5.67;;;;;;;;;;5109938;28;20031;-64
2023/05/05 00:58:00;;;;;;;9.20;5.47;;;;;;;;;;5110031;28;20031;-63
2023/05/05 01:00:27;;;;;;;7.63;5.53;;;;;;;;;;5110129;28;20031;-63
2023/05/05 01:02:54;;;;;;;10.60;6.40;;;;;;;;;;5112121;28;20496;-63
2023/05/05 01:05:22;;;;;;;7.50;5.83;;;;;;;;;;5115313;28;20031;-63
2023/05/05 01:07:52;;;;;;;13.10;6.73;;;;;;;;;;5114996;28;20028;-64
2023/05/05 01:10:37;;;;;;;9.13;5.87;;;;;;;;;;5114982;28;20066;-63
2023/05/05 01:13:03;;;;;;;;;;;;;;;;;;5115218;28;20084;-63
2023/05/05 01:15:50;;;;;;;22.47;7.63;;;;;;;;;;5111352;28;19911;-63
2023/05/05 01:18:29;;;;;;;9.57;7.33;;;;;;;;;;5109890;28;20370;-64
2023/05/05 01:21:05;;;;;;;10.90;9.13;;;;;;;;;;5109683;28;20020;-63
2023/05/05 01:23:50;;;;;;;15.47;10.40;;;;;;;;;;5109220;28;20023;-63
2023/05/05 01:26:16;;;;;;;;;;;;;;;;;;5114315;28;20072;-63
2023/05/05 01:28:46;;;;;;;14.77;7.33;;;;;;;;;;5114408;28;19916;-63
2023/05/05 01:31:18;;;;;;;21.30;6.17;;;;;;;;;;5114567;28;20035;-63
2023/05/05 01:33:53;;;;;;;13.33;8.20;;;;;;;;;;5113398;28;20024;-63
2023/05/05 01:36:28;;;;;;;9.23;7.57;;;;;;;;;;5114551;28;20020;-63
2023/05/05 01:38:57;;;;;;;12.07;8.27;;;;;;;;;;5109225;28;20047;-63
2023/05/05 01:41:26;;;;;;;15.87;9.97;;;;;;;;;;5109219;28;20039;-63
2023/05/05 01:43:56;;;;;;;14.40;8.30;;;;;;;;;;5109088;28;20470;-63
2023/05/05 01:46:24;;;;;;;14.23;8.47;;;;;;;;;;5109060;28;20054;-64
2023/05/05 01:48:52;;;;;;;18.67;9.07;;;;;;;;;;5113647;28;20027;-63
2023/05/05 01:51:19;;;;;;;11.43;8.30;;;;;;;;;;5113980;28;20035;-63
2023/05/05 01:53:46;;;;;;;10.07;7.33;;;;;;;;;;5114151;28;20024;-63
2023/05/05 01:56:14;;;;;;;9.83;6.33;;;;;;;;;;5113981;28;20072;-63
2023/05/05 01:58:43;;;;;;;11.77;7.93;;;;;;;;;;5113949;28;20080;-63
2023/05/05 02:01:11;;;;;;;13.77;8.83;;;;;;;;;;5108864;28;20020;-64
2023/05/05 02:03:39;;;;;;;10.73;6.93;;;;;;;;;;5108997;28;20026;-64
2023/05/05 02:06:07;;;;;;;8.13;6.73;;;;;;;;;;5108845;28;20470;-63
2023/05/05 02:08:36;;;;;;;11.67;7.30;;;;;;;;;;5108642;28;20391;-63
2023/05/05 02:11:03;;;;;;;15.80;8.23;;;;;;;;;;5113108;28;20042;-63
2023/05/05 02:13:31;;;;;;;17.77;8.83;;;;;;;;;;5113746;28;20020;-63
2023/05/05 02:15:58;;;;;;;18.57;7.90;;;;;;;;;;5113618;28;20028;-64
2023/05/05 02:18:27;;;;;;;8.30;6.87;;;;;;;;;;5095338;28;21142;-63
2023/05/05 02:20:54;;;;;;;12.70;8.30;;;;;;;;;;5113330;28;20030;-63
2023/05/05 02:23:20;;;;;;;15.43;10.63;;;;;;;;;;5108745;28;20046;-64
2023/05/05 02:25:49;;;;;;;10.30;7.73;;;;;;;;;;5108491;28;20028;-63
2023/05/05 02:28:25;;;;;;;16.87;8.07;;;;;;;;;;5108407;28;20422;-64
2023/05/05 02:30:56;;;;;;;9.93;7.03;;;;;;;;;;5108243;28;20037;-63
2023/05/05 02:33:25;;;;;;;10.20;8.13;;;;;;;;;;5112486;28;20034;-63
2023/05/05 02:35:54;;;;;;;11.07;7.97;;;;;;;;;;5112894;28;20030;-63
2023/05/05 02:38:22;;;;;;;9.83;6.40;;;;;;;;;;5113006;28;20023;-63
2023/05/05 02:40:50;;;;;;;12.73;8.10;;;;;;;;;;5113651;28;20370;-63
2023/05/05 02:43:19;;;;;;;11.03;7.67;;;;;;;;;;5113408;28;20064;-63
2023/05/05 02:45:46;;;;;;;12.10;8.83;;;;;;;;;;5108220;28;20024;-64
2023/05/05 02:48:13;;;;;;;16.10;6.47;;;;;;;;;;5108082;28;20023;-63
2023/05/05 02:50:39;;;;;;;12.30;8.53;;;;;;;;;;5108097;28;20036;-63
2023/05/05 02:53:06;;;;;;;8.57;7.00;;;;;;;;;;5107776;28;20050;-63
2023/05/05 02:55:42;;;;;;;10.00;6.00;;;;;;;;;;5111723;28;20077;-63
2023/05/05 02:58:29;;;;;;;12.87;8.13;;;;;;;;;;5113054;28;20484;-63
2023/05/05 03:01:19;;;;;;;10.73;7.60;;;;;;;;;;5113169;28;20020;-63
2023/05/05 03:04:12;;;;;;;13.40;9.20;;;;;;;;;;5066282;28;20035;-63
2023/05/05 03:06:40;;;;;;;9.57;7.10;;;;;;;;;;5072949;28;20135;-63
2023/05/05 03:09:07;;;;;;;10.03;6.40;;;;;;;;;;5107458;28;20042;-64
2023/05/05 03:11:57;;;;;;;8.37;6.80;;;;;;;;;;5107769;28;20514;-63
2023/05/05 03:14:24;;;;;;;16.60;8.03;;;;;;;;;;5094857;28;20047;-63
2023/05/05 03:16:52;;;;;;;10.73;8.10;;;;;;;;;;5109259;28;20022;-63
2023/05/05 03:19:20;;;;;;;21.47;8.77;;;;;;;;;;5112815;28;20385;-63
2023/05/05 03:21:47;;;;;;;10.77;7.53;;;;;;;;;;5112290;28;20504;-63
2023/05/05 03:24:15;;;;;;;12.00;8.47;;;;;;;;;;5112820;28;20031;-64
2023/05/05 03:26:42;;;;;;;10.50;6.50;;;;;;;;;;5112907;28;20024;-63
2023/05/05 03:29:08;;;;;;;9.57;6.77;;;;;;;;;;5110586;28;20119;-64
2023/05/05 03:31:35;;;;;;;8.73;7.23;;;;;;;;;;5107611;28;20500;-63
2023/05/05 03:34:02;;;;;;;14.73;10.10;;;;;;;;;;5107503;28;20020;-63
2023/05/05 03:36:30;;;;;;;10.80;7.20;;;;;;;;;;5107648;28;20111;-63
2023/05/05 03:38:57;;;;;;;19.27;7.67;;;;;;;;;;5108149;28;20035;-63
2023/05/05 03:41:24;;;;;;;8.37;6.07;;;;;;;;;;5112593;28;20381;-64
2023/05/05 03:43:51;;;;;;;27.03;9.10;;;;;;;;;;5112705;28;20020;-63
2023/05/05 03:46:18;;;;;;;11.07;8.13;;;;;;;;;;5112317;28;20024;-64
2023/05/05 03:48:45;;;;;;;10.67;7.83;;;;;;;;;;5112644;28;20084;-63
2023/05/05 03:51:12;;;;;;;10.43;7.50;;;;;;;;;;5111148;28;20071;-63
2023/05/05 03:53:39;;;;;;;19.17;6.83;;;;;;;;;;5107476;28;20085;-63
2023/05/05 03:56:06;;;;;;;8.57;7.20;;;;;;;;;;5107111;28;20050;-63
2023/05/05 03:58:33;;;;;;;12.43;8.50;;;;;;;;;;5110606;28;20379;-63
2023/05/05 04:00:59;;;;;;;9.73;7.13;;;;;;;;;;5111566;28;20032;-64
2023/05/05 04:03:26;;;;;;;9.43;7.03;;;;;;;;;;5116051;28;20011;-64
2023/05/05 04:05:53;;;;;;;14.20;9.20;;;;;;;;;;5116196;28;20486;-63
2023/05/05 04:08:19;;;;;;;11.77;8.73;;;;;;;;;;5116195;28;20068;-63
2023/05/05 04:10:46;;;;;;;15.07;10.07;;;;;;;;;;5116053;28;20031;-63
2023/05/05 04:13:13;;;;;;;12.73;7.53;;;;;;;;;;5115362;28;20015;-63
2023/05/05 04:15:44;;;;;;;12.13;9.00;;;;;;;;;;5110777;28;20033;-64
2023/05/05 04:18:11;;;;;;;13.37;8.97;;;;;;;;;;5110956;28;20373;-63
2023/05/05 04:20:38;;;;;;;11.57;8.23;;;;;;;;;;5110932;28;20024;-63
2023/05/05 04:23:04;;;;;;;29.13;8.00;;;;;;;;;;5110954;28;20032;-63
2023/05/05 04:25:31;;;;;;;11.20;7.57;;;;;;;;;;5115759;28;20027;-63
2023/05/05 04:27:58;;;;;;;9.13;6.03;;;;;;;;;;5115698;28;20079;-63
2023/05/05 04:30:25;;;;;;;8.43;6.13;;;;;;;;;;5115324;28;20028;-63
2023/05/05 04:32:52;;;;;;;16.20;7.93;;;;;;;;;;5115791;28;20488;-63
2023/05/05 04:35:19;;;;;;;13.77;8.47;;;;;;;;;;5115622;28;20036;-63
2023/05/05 04:37:45;;;;;;;17.33;7.37;;;;;;;;;;5110517;28;20030;-63
2023/05/05 04:40:12;;;;;;;12.10;7.50;;;;;;;;;;5110586;28;20030;-63
2023/05/05 04:42:39;;;;;;;9.67;7.00;;;;;;;;;;5110390;28;20055;-64
2023/05/05 04:45:06;;;;;;;8.53;6.50;;;;;;;;;;5110415;28;20028;-63
2023/05/05 04:47:36;;;;;;;10.93;7.13;;;;;;;;;;5114560;28;20024;-63
2023/05/05 04:50:03;;;;;;;10.27;7.03;;;;;;;;;;5115425;28;20026;-63
2023/05/05 04:52:30;;;;;;;10.23;6.83;;;;;;;;;;5115389;28;20035;-63
2023/05/05 04:54:57;;;;;;;10.33;6.43;;;;;;;;;;5115047;28;20031;-63
2023/05/05 04:57:23;;;;;;;10.10;7.17;;;;;;;;;;5115384;28;20499;-63
2023/05/05 04:59:50;;;;;;;19.40;7.63;;;;;;;;;;5110414;28;20083;-64
2023/05/05 05:02:17;;;;;;;9.40;6.73;;;;;;;;;;5110061;28;20032;-63
2023/05/05 05:04:44;;;;;;;13.13;7.77;;;;;;;;;;5109831;28;20028;-65
2023/05/05 05:07:11;;;;;;;9.33;6.67;;;;;;;;;;5109815;28;20032;-64
2023/05/05 05:09:37;;;;;;;8.23;5.80;;;;;;;;;;5113448;28;20026;-63
2023/05/05 05:12:06;;;;;;;7.53;6.20;;;;;;;;;;5114771;28;20112;-63
2023/05/05 05:14:39;;;;;;;8.23;5.33;;;;;;;;;;5114802;28;20024;-63
2023/05/05 05:17:06;;;;;;;11.63;6.83;;;;;;;;;;5114958;28;20027;-63
2023/05/05 05:19:33;;;;;;;11.40;7.40;;;;;;;;;;5114884;28;20031;-63
2023/05/05 05:22:00;;;;;;;10.83;7.80;;;;;;;;;;5110167;28;20023;-63
2023/05/05 05:24:26;;;;;;;14.47;7.03;;;;;;;;;;5109563;28;20024;-63
2023/05/05 05:26:53;;;;;;;6.20;4.97;;;;;;;;;;5109963;28;20412;-63
2023/05/05 05:29:20;;;;;;;7.03;5.73;;;;;;;;;;5109294;28;20031;-63
2023/05/05 05:31:47;;;;;;;9.50;6.07;;;;;;;;;;5112667;28;20032;-63
2023/05/05 05:34:13;;;;;;;9.67;7.07;;;;;;;;;;5114642;28;20098;-63
2023/05/05 05:36:40;;;;;;;9.13;6.27;;;;;;;;;;5114374;28;20015;-63
2023/05/05 05:39:07;;;;;;;11.03;7.40;;;;;;;;;;5114139;28;20484;-63
2023/05/05 05:41:34;;;;;;;9.93;7.60;;;;;;;;;;5114265;28;20020;-63
2023/05/05 05:44:00;;;;;;;9.97;7.63;;;;;;;;;;5110930;28;20043;-63
2023/05/05 05:46:27;;;;;;;14.70;8.03;;;;;;;;;;5109284;28;20377;-63
2023/05/05 05:48:54;;;;;;;7.70;5.93;;;;;;;;;;5109153;28;20054;-63
2023/05/05 05:51:21;;;;;;;11.40;6.80;;;;;;;;;;5108973;28;20084;-64
2023/05/05 05:53:47;;;;;;;15.80;7.37;;;;;;;;;;5111601;28;20023;-63
2023/05/05 05:56:14;;;;;;;12.40;8.20;;;;;;;;;;5113922;28;20038;-63
2023/05/05 05:58:41;;;;;;;10.13;7.27;;;;;;;;;;5113925;28;20032;-63
2023/05/05 06:01:08;;;;;;;9.57;6.27;;;;;;;;;;5114010;28;20371;-63
2023/05/05 06:03:34;;;;;;;8.00;6.27;;;;;;;;;;5113761;28;20034;-64
2023/05/05 06:06:01;;;;;;;10.07;7.10;;;;;;;;;;5111158;28;20016;-63
2023/05/05 06:08:28;;;;;;;7.67;6.07;;;;;;;;;;5108886;28;20066;-63
2023/05/05 06:10:54;;;;;;;10.67;7.80;;;;;;;;;;5108775;28;20398;-63
2023/05/05 06:13:21;;;;;;;12.40;8.67;;;;;;;;;;5108687;28;20019;-63
2023/05/05 06:15:48;;;;;;;9.30;7.57;;;;;;;;;;5110056;28;20031;-63
2023/05/05 06:18:15;;;;;;;11.00;8.23;;;;;;;;;;5113710;28;20474;-63
2023/05/05 06:20:42;;;;;;;11.00;8.10;;;;;;;;;;5113005;28;20027;-63
2023/05/05 06:23:09;;;;;;;11.60;7.73;;;;;;;;;;5113672;28;20035;-63
2023/05/05 06:25:36;;;;;;;13.77;7.93;;;;;;;;;;5113528;28;20030;-63
2023/05/05 06:28:04;;;;;;;13.67;8.13;;;;;;;;;;5111508;28;20030;-63
2023/05/05 06:30:31;;;;;;;13.10;8.50;;;;;;;;;;5108253;28;20031;-63
2023/05/05 06:32:58;;;;;;;10.17;8.00;;;;;;;;;;5108114;28;20031;-63
2023/05/05 06:35:25;;;;;;;11.90;8.20;;;;;;;;;;5108300;28;20029;-63
2023/05/05 06:37:51;;;;;;;19.17;8.10;;;;;;;;;;5109497;28;20023;-63
2023/05/05 06:40:18;;;;;;;12.10;8.20;;;;;;;;;;5113317;28;20023;-63
2023/05/05 06:42:45;;;;;;;11.80;7.80;;;;;;;;;;5113405;28;20020;-63
2023/05/05 06:45:12;;;;;;;10.50;8.23;;;;;;;;;;5113170;28;20477;-63
2023/05/05 06:47:39;;;;;;;11.43;6.87;;;;;;;;;;5113006;28;20427;-63
2023/05/05 06:50:07;;;;;;;8.93;7.60;;;;;;;;;;5111606;28;20037;-63
2023/05/05 06:52:33;;;;;;;12.83;8.90;;;;;;;;;;5108108;28;20035;-63
2023/05/05 06:55:00;;;;;;;11.73;8.33;;;;;;;;;;5108053;28;20023;-63
2023/05/05 06:57:27;;;;;;;9.40;7.27;;;;;;;;;;5107936;28;20054;-63
2023/05/05 06:59:54;;;;;;;16.00;9.00;;;;;;;;;;5108587;28;20030;-63
2023/05/05 07:02:20;;;;;;;12.23;7.53;;;;;;;;;;5113045;28;20030;-63
2023/05/05 07:04:47;;;;;;;9.37;7.40;;;;;;;;;;5112911;28;20022;-64
2023/05/05 07:07:14;;;;;;;10.23;6.93;;;;;;;;;;5112901;28;20016;-63
2023/05/05 07:09:41;;;;;;;11.67;8.27;;;;;;;;;;5112516;28;20055;-63
2023/05/05 07:12:08;;;;;;;10.63;8.13;;;;;;;;;;5112026;28;20031;-63
2023/05/05 07:14:35;;;;;;;14.63;8.67;;;;;;;;;;5107785;28;20069;-63
2023/05/05 07:17:02;;;;;;;13.40;7.37;;;;;;;;;;5107869;28;20046;-62
2023/05/05 07:19:28;;;;;;;12.23;7.83;;;;;;;;;;5107922;28;20024;-63
2023/05/05 07:21:55;;;;;;;11.20;8.17;;;;;;;;;;5107751;28;20020;-63
2023/05/05 07:24:23;;;;;;;9.30;6.80;;;;;;;;;;5112756;28;20031;-63
2023/05/05 07:26:50;;;;;;;11.83;7.33;;;;;;;;;;5112362;28;20382;-63
2023/05/05 07:29:17;;;;;;;8.00;6.00;;;;;;;;;;5112518;28;20038;-63
2023/05/05 07:31:43;;;;;;;10.83;7.77;;;;;;;;;;5113058;28;20368;-63
2023/05/05 07:34:10;;;;;;;10.10;6.90;;;;;;;;;;5116977;28;20469;-62
2023/05/05 07:36:37;;;;;;;10.30;8.20;;;;;;;;;;5111641;28;20032;-63
2023/05/05 07:39:04;;;;;;;12.80;7.70;;;;;;;;;;5111657;28;20085;-63
2023/05/05 07:41:30;;;;;;;13.67;7.53;;;;;;;;;;5111791;28;20030;-63
2023/05/05 07:43:57;;;;;;;13.10;7.27;;;;;;;;;;5111169;28;20023;-63
2023/05/05 07:46:24;;;;;;;13.07;7.60;;;;;;;;;;5115804;28;20027;-62
2023/05/05 07:48:51;;;;;;;8.77;7.30;;;;;;;;;;5116494;28;20039;-63
2023/05/05 07:51:17;;;;;;;11.23;8.07;;;;;;;;;;5116548;28;20036;-62
2023/05/05 07:53:44;;;;;;;8.60;7.00;;;;;;;;;;5116515;28;20047;-63
2023/05/05 07:56:11;;;;;;;12.67;7.80;;;;;;;;;;5116433;28;20106;-63
2023/05/05 07:58:38;;;;;;;15.93;9.10;;;;;;;;;;5112013;28;20429;-63
2023/05/05 08:01:05;;;;;;;11.17;8.33;;;;;;;;;;5111142;28;20043;-63
2023/05/05 08:03:32;;;;;;;12.93;8.40;;;;;;;;;;5111225;28;20517;-63
2023/05/05 08:06:06;;;;;;;11.63;7.93;;;;;;;;;;5111060;28;20130;-63
2023/05/05 08:08:32;;;;;;;12.77;8.53;;;;;;;;;;5115206;28;20046;-62
2023/05/05 08:11:00;;;;;;;13.63;8.07;;;;;;;;;;5116066;28;20169;-63
2023/05/05 08:13:27;;;;;;;8.00;6.50;;;;;;;;;;5116022;28;20020;-63
2023/05/05 08:15:54;;;;;;;11.87;8.90;;;;;;;;;;5116046;28;20023;-63
2023/05/05 08:18:20;;;;;;;10.43;7.30;;;;;;;;;;5115877;28;20382;-63
2023/05/05 08:20:47;;;;;;;13.63;8.57;;;;;;;;;;5111633;28;20051;-62
2023/05/05 08:23:14;;;;;;;11.93;8.57;;;;;;;;;;5110797;28;20028;-63
2023/05/05 08:25:41;;;;;;;11.17;8.53;;;;;;;;;;5111037;28;20028;-62
2023/05/05 08:28:07;;;;;;;11.87;8.00;;;;;;;;;;5110468;28;20019;-62
2023/05/05 08:30:34;;;;;;;11.13;7.47;;;;;;;;;;5113868;28;20409;-63
2023/05/05 08:33:01;;;;;;;9.17;7.67;;;;;;;;;;5115788;28;20444;-62
2023/05/05 08:35:28;;;;;;;13.97;9.00;;;;;;;;;;5115386;28;20470;-63
2023/05/05 08:37:55;;;;;;;9.57;7.23;;;;;;;;;;5115647;28;20562;-62
2023/05/05 08:40:23;;;;;;;11.50;8.50;;;;;;;;;;5115575;28;20050;-63
2023/05/05 08:42:50;;;;;;;8.87;7.03;;;;;;;;;;5111461;28;20358;-62
2023/05/05 08:45:17;;;;;;;11.43;8.37;;;;;;;;;;5110499;28;20441;-63
2023/05/05 08:47:44;;;;;;;21.33;7.87;;;;;;;;;;5110306;28;20027;-63
2023/05/05 08:50:11;;;;;;;12.23;7.67;;;;;;;;;;5110291;28;20024;-63
2023/05/05 08:52:39;;;;;;;19.87;9.10;;;;;;;;;;5112791;28;20016;-62
2023/05/05 08:55:20;;;;;;;12.87;8.53;;;;;;;;;;5115126;28;20036;-63
2023/05/05 08:57:59;;;;;;;8.73;6.73;;;;;;;;;;5115159;28;20020;-62
2023/05/05 09:00:26;;;;;;;14.00;9.87;;;;;;;;;;5115237;28;20028;-62
2023/05/05 09:02:56;;;;;;;13.77;8.83;;;;;;;;;;5114495;28;20037;-62
2023/05/05 09:05:23;;;;;;;12.23;8.53;;;;;;;;;;5111013;28;20030;-62
2023/05/05 09:07:50;;;;;;;12.67;9.33;;;;;;;;;;5109877;28;20543;-62
2023/05/05 09:10:18;;;;;;;14.73;7.27;;;;;;;;;;5109916;28;20090;-63
2023/05/05 09:12:44;;;;;;;13.10;9.07;;;;;;;;;;5109799;28;20058;-62
2023/05/05 09:15:12;;;;;;;7.90;6.43;;;;;;;;;;5113057;28;20135;-63
2023/05/05 09:17:39;;;;;;;12.33;8.47;;;;;;;;;;5114933;28;20016;-62
2023/05/05 09:20:10;;;;;;;14.57;9.83;;;;;;;;;;5114601;28;20024;-62
2023/05/05 09:22:38;;;;;;;19.03;9.90;;;;;;;;;;5114809;28;20467;-62
2023/05/05 09:25:11;;;;;;;10.57;8.70;;;;;;;;;;5114686;28;20031;-62
2023/05/05 09:27:42;;;;;;;12.97;8.47;;;;;;;;;;5110653;28;20020;-63
2023/05/05 09:30:09;;;;;;;9.97;8.27;;;;;;;;;;5109227;28;20035;-62
2023/05/05 09:32:45;;;;;;;17.73;9.90;;;;;;;;;;5109153;28;20035;-62
2023/05/05 09:35:12;;;;;;;14.57;11.37;;;;;;;;;;5109493;28;20790;-64
2023/05/05 09:37:39;;;;;;;14.73;10.10;;;;;;;;;;5112985;28;20028;-62
2023/05/05 09:40:08;;;;;;;15.77;10.83;;;;;;;;;;5114512;28;20016;-62
2023/05/05 09:42:38;;;;;;;14.10;10.37;;;;;;;;;;5114244;28;20024;-62
2023/05/05 09:45:28;;;;;;;14.10;10.57;;;;;;;;;;5114284;28;20027;-63
2023/05/05 09:47:55;;;;;;;17.70;11.63;;;;;;;;;;5101283;28;20485;-63
2023/05/05 09:50:22;;;;;;;15.10;9.83;;;;;;;;;;5109275;28;20052;-62
2023/05/05 09:52:55;;;;;;;17.73;11.67;;;;;;;;;;5109047;28;20046;-63
2023/05/05 09:55:21;;;;;;;16.17;10.47;;;;;;;;;;5108023;28;20052;-63
2023/05/05 09:57:48;;;;;;;18.17;9.77;;;;;;;;;;5109082;28;20228;-63
2023/05/05 10:00:15;;;;;;;16.57;12.53;;;;;;;;;;5112988;28;20081;-62
2023/05/05 10:02:42;;;;;;;10.27;9.10;;;;;;;;;;5114058;28;20125;-62
2023/05/05 10:05:16;;;;;;;17.03;10.10;;;;;;;;;;5113901;28;20031;-62
2023/05/05 10:07:46;;;;;;;19.93;13.10;;;;;;;;;;5113888;28;20035;-63
2023/05/05 10:10:17;;;;;;;25.53;13.13;;;;;;;;;;5113702;28;20149;-62
2023/05/05 10:12:46;;;;;;;11.87;10.60;;;;;;;;;;5108879;28;20419;-62
2023/05/05 10:15:15;;;;;;;24.87;15.17;;;;;;;;;;5108548;28;20030;-63
2023/05/05 10:17:48;;;;;;;19.80;11.47;;;;;;;;;;5108596;28;20484;-63
2023/05/05 10:20:15;;;;;;;11.40;8.17;;;;;;;;;;5108535;28;20091;-62
2023/05/05 10:22:52;;;;;;;15.13;11.20;;;;;;;;;;5112950;28;20019;-62
2023/05/05 10:25:21;;;;;;;19.97;8.87;;;;;;;;;;5113647;28;20035;-63
2023/05/05 10:27:53;;;;;;;12.90;9.90;;;;;;;;;;5113654;28;20027;-62
2023/05/05 10:30:23;;;;;;;14.53;10.33;;;;;;;;;;5113514;28;20386;-63
2023/05/05 10:33:04;;;;;;;27.30;11.93;;;;;;;;;;5113158;28;20027;-62
2023/05/05 10:35:32;;;;;;;11.30;8.87;;;;;;;;;;5108164;28;20023;-62
2023/05/05 10:38:00;;;;;;;23.40;15.43;;;;;;;;;;5108321;28;20027;-63
2023/05/05 10:40:27;;;;;;;28.60;15.63;;;;;;;;;;5108318;28;20020;-62
2023/05/05 10:42:54;;;;;;;23.23;14.17;;;;;;;;;;5108209;28;20462;-63
2023/05/05 10:45:21;;;;;;;21.17;13.00;;;;;;;;;;5113280;28;20027;-62
2023/05/05 10:47:49;;;;;;;12.73;10.07;;;;;;;;;;5113176;28;20032;-62
2023/05/05 10:50:18;;;;;;;15.67;10.90;;;;;;;;;;5112625;28;20011;-63
2023/05/05 10:52:50;;;;;;;18.50;12.07;;;;;;;;;;5113083;28;20022;-62
2023/05/05 10:55:22;;;;;;;26.77;13.97;;;;;;;;;;5112314;28;20054;-62
2023/05/05 10:57:52;;;;;;;17.00;12.10;;;;;;;;;;5108037;28;20039;-62
2023/05/05 11:00:37;;;;;;;17.23;11.90;;;;;;;;;;5107969;28;20046;-63
2023/05/05 11:03:33;;;;;;;18.58;12.20;;;;;;;;;;5108001;28;20027;-63
2023/05/05 11:06:11;;;;;;;17.33;13.43;;;;;;;;;;5077771;28;20412;-63
2023/05/05 11:08:38;;;;;;;30.93;13.00;;;;;;;;;;5112446;28;20023;-63
2023/05/05 11:11:06;;;;;;;25.47;14.67;;;;;;;;;;5112937;28;20031;-62
2023/05/05 11:13:32;;;;;;;15.93;12.73;;;;;;;;;;5112702;28;20373;-62
2023/05/05 11:16:01;;;;;;;17.30;11.70;;;;;;;;;;5112913;28;20393;-62
2023/05/05 11:18:37;;;;;;;22.20;13.07;;;;;;;;;;5110283;28;20020;-62
2023/05/05 11:21:14;;;;;;;25.63;13.73;;;;;;;;;;5107353;28;20027;-62
2023/05/05 11:23:42;;;;;;;13.00;10.97;;;;;;;;;;5107729;28;20047;-63
2023/05/05 11:26:09;;;;;;;16.00;12.83;;;;;;;;;;5107982;28;20023;-63
2023/05/05 11:28:54;;;;;;;18.93;12.63;;;;;;;;;;5110088;28;20513;-62
2023/05/05 11:31:21;;;;;;;13.45;10.73;;;;;;;;;;5112328;28;20032;-62
2023/05/05 11:33:48;;;;;;;17.13;11.87;;;;;;;;;;5112589;28;20081;-62
2023/05/05 11:36:16;;;;;;;17.37;11.37;;;;;;;;;;5112757;28;20031;-62
2023/05/05 11:39:01;;;;;;;17.07;12.73;;;;;;;;;;5112677;28;20024;-62
2023/05/05 11:41:29;;;;;;;17.77;12.88;;;;;;;;;;5108716;28;20039;-62
2023/05/05 11:44:28;;;;;;;13.53;11.37;;;;;;;;;;5107421;28;20084;-63
2023/05/05 11:46:54;;;;;;;16.83;12.77;;;;;;;;;;5051885;28;20394;-63
2023/05/05 11:49:28;;;;;;;19.60;13.50;;;;;;;;;;5107445;28;20020;-63
2023/05/05 11:51:58;;;;;;;19.37;14.47;;;;;;;;;;5112112;28;20024;-62
2023/05/05 11:54:25;;;;;;;20.60;13.43;;;;;;;;;;5112770;28;21065;-62
2023/05/05 11:57:07;;;;;;;30.43;16.13;;;;;;;;;;5112269;28;20054;-62
2023/05/05 11:59:50;;;;;;;18.93;13.63;;;;;;;;;;5112345;28;20016;-63
2023/05/05 12:02:17;;;;;;;21.50;15.50;;;;;;;;;;5110649;28;20074;-63
2023/05/05 12:04:44;;;;;;;19.23;10.30;;;;;;;;;;5107016;28;20051;-63
2023/05/05 12:07:17;;;;;;;12.67;10.13;;;;;;;;;;5107098;28;20038;-62
2023/05/05 12:09:45;;;;;;;20.27;13.17;;;;;;;;;;5107239;28;20060;-62
2023/05/05 12:12:12;;;;;;;11.20;9.23;;;;;;;;;;5107560;28;20039;-62
2023/05/05 12:14:46;;;;;;;13.17;10.27;;;;;;;;;;5112159;28;20039;-62
2023/05/05 12:17:12;;;;;;;13.13;9.00;;;;;;;;;;5112367;28;20016;-63
2023/05/05 12:19:49;;;;;;;12.83;9.20;;;;;;;;;;5115530;28;20084;-63
2023/05/05 12:22:24;;;;;;;22.20;9.80;;;;;;;;;;5115631;28;20027;-62
2023/05/05 12:24:54;;;;;;;14.27;11.05;;;;;;;;;;5114218;28;20019;-62
2023/05/05 12:27:21;;;;;;;15.33;10.10;;;;;;;;;;5110257;28;20031;-62
2023/05/05 12:29:48;;;;;;;19.93;12.40;;;;;;;;;;5110603;28;20042;-62
2023/05/05 12:32:25;;;;;;;19.80;14.53;;;;;;;;;;5110555;28;20031;-62
2023/05/05 12:34:56;;;;;;;18.33;13.47;;;;;;;;;;5111747;28;20028;-62
2023/05/05 12:37:24;;;;;;;18.73;13.97;;;;;;;;;;5115658;28;20476;-62
2023/05/05 12:39:51;;;;;;;31.07;14.57;;;;;;;;;;5115286;28;20012;-62
2023/05/05 12:42:18;;;;;;;24.57;16.13;;;;;;;;;;5114968;28;20119;-63
2023/05/05 12:44:49;;;;;;;16.70;11.40;;;;;;;;;;5115507;28;20020;-62
2023/05/05 12:47:30;;;;;;;21.67;10.93;;;;;;;;;;5113191;28;20024;-62
2023/05/05 12:49:58;;;;;;;19.43;13.57;;;;;;;;;;5110349;28;20024;-62
2023/05/05 12:52:41;;;;;;;20.13;15.80;;;;;;;;;;5109839;28;20042;-64
2023/05/05 12:55:08;;;;;;;19.67;15.00;;;;;;;;;;5109975;28;20466;-62
2023/05/05 12:57:35;;;;;;;17.83;12.30;;;;;;;;;;5112275;28;20031;-62
2023/05/05 13:00:12;;;;;;;17.10;11.37;;;;;;;;;;5115150;28;20016;-62
2023/05/05 13:02:39;;;;;;;13.73;10.63;;;;;;;;;;5114962;28;20542;-63
2023/05/05 13:05:07;;;;;;;16.53;11.70;;;;;;;;;;5114829;28;20023;-63
2023/05/05 13:07:34;;;;;;;14.80;12.33;;;;;;;;;;5115048;28;20411;-63
2023/05/05 13:10:09;;;;;;;19.67;11.73;;;;;;;;;;5112257;28;21955;-63
2023/05/05 13:12:36;;;;;;;10.80;8.50;;;;;;;;;;5109766;28;20031;-63
2023/05/05 13:15:03;;;;;;;9.37;7.47;;;;;;;;;;5109735;28;20414;-62
2023/05/05 13:17:30;;;;;;;10.27;7.63;;;;;;;;;;5109544;28;20481;-62
2023/05/05 13:19:57;;;;;;;9.37;7.73;;;;;;;;;;5112049;28;20066;-63
2023/05/05 13:22:23;;;;;;;16.47;11.47;;;;;;;;;;5114732;28;20415;-63
2023/05/05 13:24:50;;;;;;;18.47;11.30;;;;;;;;;;5114907;28;20024;-63
2023/05/05 13:27:17;;;;;;;16.03;10.97;;;;;;;;;;5114651;28;20027;-63
2023/05/05 13:29:44;;;;;;;12.53;9.97;;;;;;;;;;5114414;28;20057;-65
2023/05/05 13:32:10;;;;;;;16.60;11.13;;;;;;;;;;5111689;28;20553;-62
2023/05/05 13:34:37;;;;;;;16.10;10.20;;;;;;;;;;5109258;28;20058;-63
2023/05/05 13:37:04;;;;;;;12.10;8.77;;;;;;;;;;5109425;28;20090;-63
2023/05/05 13:39:31;;;;;;;16.73;12.20;;;;;;;;;;5109162;28;20034;-63
2023/05/05 13:41:58;;;;;;;13.77;10.17;;;;;;;;;;5111174;28;20044;-63
2023/05/05 13:44:24;;;;;;;17.47;13.53;;;;;;;;;;5114349;28;20058;-63
2023/05/05 13:46:51;;;;;;;18.30;13.23;;;;;;;;;;5114112;28;20012;-63
2023/05/05 13:49:19;;;;;;;15.87;12.77;;;;;;;;;;5114171;28;20081;-63
2023/05/05 13:51:45;;;;;;;17.00;12.10;;;;;;;;;;5114007;28;20027;-63
2023/05/05 13:54:12;;;;;;;22.33;14.07;;;;;;;;;;5112118;28;20024;-63
2023/05/05 13:56:39;;;;;;;21.63;12.00;;;;;;;;;;5109024;28;20028;-63
2023/05/05 13:59:06;;;;;;;21.50;12.67;;;;;;;;;;5108843;28;20359;-63
2023/05/05 14:01:32;;;;;;;23.57;12.47;;;;;;;;;;5108785;28;20066;-63
2023/05/05 14:03:59;;;;;;;17.17;11.53;;;;;;;;;;5110125;28;20027;-63
2023/05/05 14:06:26;;;;;;;13.37;10.00;;;;;;;;;;5113765;28;20351;-62
2023/05/05 14:08:53;;;;;;;17.37;11.90;;;;;;;;;;5113405;28;20035;-64
2023/05/05 14:11:20;;;;;;;15.80;12.17;;;;;;;;;;5113816;28;20389;-63
2023/05/05 14:13:47;;;;;;;20.37;13.90;;;;;;;;;;5113791;28;20028;-63
2023/05/05 14:16:14;;;;;;;18.17;13.47;;;;;;;;;;5112078;28;20099;-63
2023/05/05 14:18:41;;;;;;;27.27;15.40;;;;;;;;;;5108410;28;20028;-63
2023/05/05 14:21:08;;;;;;;20.50;17.07;;;;;;;;;;5108486;28;20531;-63
2023/05/05 14:23:35;;;;;;;31.37;12.70;;;;;;;;;;5108422;28;20098;-63
2023/05/05 14:26:02;;;;;;;16.67;12.13;;;;;;;;;;5108767;28;20027;-64
2023/05/05 14:28:28;;;;;;;22.33;15.43;;;;;;;;;;5113425;28;20470;-63
2023/05/05 14:30:55;;;;;;;44.07;14.57;;;;;;;;;;5113527;28;20119;-63
2023/05/05 14:33:22;;;;;;;25.03;15.07;;;;;;;;;;5113436;28;20032;-63
2023/05/05 14:35:49;;;;;;;21.53;13.33;;;;;;;;;;5113542;28;20072;-63
2023/05/05 14:38:15;;;;;;;20.93;12.43;;;;;;;;;;5112026;28;20027;-64